createdAt,value
2023-03-22T00:01:24.812Z,15.88
2023-03-22T00:03:52.488Z,12.93
2023-03-22T00:06:19.479Z,22.17
2023-03-22T00:08:50.766Z,12.65
2023-03-22T00:11:19.041Z,18.50
2023-03-22T00:13:47.085Z,16.63
2023-03-22T00:16:14.799Z,20.80
2023-03-22T00:18:41.786Z,14.45
2023-03-22T00:21:13.446Z,13.00
2023-03-22T00:23:40.904Z,14.60
2023-03-22T00:26:08.934Z,13.50
2023-03-22T00:28:36.212Z,16.15
2023-03-22T00:31:04.695Z,21.50
2023-03-22T00:33:32.386Z,12.50
2023-03-22T00:36:02.136Z,22.55
2023-03-22T00:38:43.741Z,25.90
2023-03-22T00:41:18.011Z,22.10
2023-03-22T00:43:45.730Z,11.25
2023-03-22T00:46:13.373Z,8.27
2023-03-22T00:48:40.625Z,11.77
2023-03-22T00:51:08.527Z,20.65
2023-03-22T00:53:36.638Z,16.13
2023-03-22T00:56:05.102Z,15.82
2023-03-22T00:58:32.085Z,16.02
2023-03-22T01:00:58.640Z,9.82
2023-03-22T01:05:57.019Z,15.07
2023-03-22T01:08:25.628Z,10.32
2023-03-22T01:10:52.328Z,15.45
2023-03-22T01:13:19.110Z,11.15
2023-03-22T01:15:47.936Z,13.75
2023-03-22T01:18:14.536Z,10.77
2023-03-22T01:20:41.377Z,17.63
2023-03-22T01:23:08.046Z,12.55
2023-03-22T01:25:34.714Z,15.18
2023-03-22T01:28:02.782Z,10.98
2023-03-22T01:30:30.340Z,13.10
2023-03-22T01:32:57.083Z,10.60
2023-03-22T01:35:23.765Z,13.13
2023-03-22T01:37:50.342Z,12.00
2023-03-22T01:40:17.308Z,12.30
2023-03-22T01:42:43.811Z,14.38
2023-03-22T01:45:18.985Z,13.50
2023-03-22T01:47:57.436Z,10.65
2023-03-22T01:50:25.902Z,9.73
2023-03-22T01:52:54.723Z,9.98
2023-03-22T01:55:22.895Z,17.17
2023-03-22T01:57:50.724Z,15.30
2023-03-22T02:00:18.997Z,10.43
2023-03-22T02:02:49.428Z,13.60
2023-03-22T02:05:17.354Z,12.80
2023-03-22T02:07:44.221Z,10.68
2023-03-22T02:10:21.370Z,9.63
2023-03-22T02:13:20.245Z,12.80
2023-03-22T02:16:28.447Z,19.05
2023-03-22T02:18:57.860Z,18.80
2023-03-22T02:21:45.282Z,18.10
2023-03-22T02:24:43.910Z,18.77
2023-03-22T02:27:25.971Z,18.45
2023-03-22T02:30:04.532Z,18.15
2023-03-22T02:32:46.134Z,18.60
2023-03-22T02:35:33.602Z,17.83
2023-03-22T02:38:17.228Z,17.92
2023-03-22T02:41:08.236Z,17.63
2023-03-22T02:44:00.294Z,18.30
2023-03-22T02:46:38.553Z,18.23
2023-03-22T02:49:19.580Z,17.85
2023-03-22T02:51:53.112Z,19.83
2023-03-22T02:54:28.900Z,17.05
2023-03-22T02:57:03.178Z,17.98
2023-03-22T02:59:33.557Z,17.88
2023-03-22T03:02:03.777Z,17.45
2023-03-22T03:04:35.545Z,16.88
2023-03-22T03:07:08.032Z,14.63
2023-03-22T03:09:36.743Z,14.95
2023-03-22T03:12:09.588Z,16.90
2023-03-22T03:14:36.054Z,14.15
2023-03-22T03:17:20.422Z,15.65
2023-03-22T03:20:07.960Z,18.08
2023-03-22T03:22:49.901Z,17.15
2023-03-22T03:25:57.932Z,18.35
2023-03-22T03:28:38.540Z,18.70
2023-03-22T03:31:26.348Z,16.65
2023-03-22T03:34:30.002Z,17.02
2023-03-22T03:37:05.805Z,17.85
2023-03-22T03:39:35.560Z,18.30
2023-03-22T03:42:04.887Z,17.67
2023-03-22T03:44:32.814Z,18.65
2023-03-22T03:47:00.009Z,18.05
2023-03-22T03:49:27.362Z,16.60
2023-03-22T03:51:55.744Z,16.45
2023-03-22T03:54:23.575Z,16.83
2023-03-22T03:56:50.984Z,17.17
2023-03-22T03:59:18.812Z,17.55
2023-03-22T04:01:52.946Z,18.25
2023-03-22T04:04:28.344Z,16.58
2023-03-22T04:06:59.566Z,17.97
2023-03-22T04:09:28.236Z,18.35
2023-03-22T04:11:55.784Z,17.40
2023-03-22T04:14:23.289Z,17.58
2023-03-22T04:16:50.484Z,17.73
2023-03-22T04:19:17.332Z,16.88
2023-03-22T04:21:44.024Z,18.95
2023-03-22T04:24:10.609Z,18.00
2023-03-22T04:26:37.138Z,17.42
2023-03-22T04:29:04.264Z,18.83
2023-03-22T04:31:32.474Z,17.42
2023-03-22T04:34:00.499Z,17.40
2023-03-22T04:36:31.209Z,18.00
2023-03-22T04:41:30.383Z,17.73
2023-03-22T04:43:57.742Z,18.85
2023-03-22T04:46:24.581Z,18.83
2023-03-22T04:48:51.110Z,17.15
2023-03-22T04:51:17.653Z,19.45
2023-03-22T04:53:44.228Z,19.30
2023-03-22T04:56:12.898Z,17.77
2023-03-22T04:58:40.947Z,18.75
2023-03-22T05:01:08.827Z,18.63
2023-03-22T05:03:35.413Z,17.90
2023-03-22T05:06:03.990Z,17.45
2023-03-22T05:08:32.342Z,19.27
2023-03-22T05:11:04.454Z,17.95
2023-03-22T05:13:31.682Z,18.83
2023-03-22T05:15:58.249Z,18.27
2023-03-22T05:18:26.349Z,19.13
2023-03-22T05:20:56.054Z,18.27
2023-03-22T05:23:23.176Z,18.95
2023-03-22T05:25:51.597Z,19.80
2023-03-22T05:28:21.439Z,19.27
2023-03-22T05:30:52.109Z,17.27
2023-03-22T05:33:24.460Z,19.30
2023-03-22T05:35:51.962Z,19.13
2023-03-22T05:38:18.530Z,19.85
2023-03-22T05:40:45.518Z,18.73
2023-03-22T05:43:12.590Z,18.05
2023-03-22T05:45:39.216Z,18.13
2023-03-22T05:48:06.153Z,18.80
2023-03-22T05:50:32.818Z,18.63
2023-03-22T05:52:59.318Z,18.33
2023-03-22T05:55:26.436Z,18.38
2023-03-22T05:57:54.813Z,19.23
2023-03-22T06:00:21.887Z,17.80
2023-03-22T06:02:49.893Z,18.52
2023-03-22T06:05:17.626Z,18.85
2023-03-22T06:07:44.820Z,16.63
2023-03-22T06:10:13.957Z,18.73
2023-03-22T06:12:40.920Z,16.98
2023-03-22T06:15:08.540Z,18.27
2023-03-22T06:17:35.110Z,18.17
2023-03-22T06:20:01.637Z,17.88
2023-03-22T06:22:30.621Z,19.08
2023-03-22T06:24:57.106Z,18.55
2023-03-22T06:27:23.659Z,18.45
2023-03-22T06:29:51.107Z,16.73
2023-03-22T06:32:17.988Z,18.27
2023-03-22T06:34:44.643Z,18.55
2023-03-22T06:37:11.130Z,16.33
2023-03-22T06:39:37.649Z,17.50
2023-03-22T06:42:04.275Z,16.67
2023-03-22T06:44:30.864Z,9.10
2023-03-22T06:46:57.393Z,14.63
2023-03-22T06:49:24.197Z,15.57
2023-03-22T06:51:50.715Z,13.15
2023-03-22T06:54:17.230Z,12.57
2023-03-22T06:56:43.782Z,14.68
2023-03-22T06:59:10.564Z,15.63
2023-03-22T07:01:37.195Z,15.55
2023-03-22T07:04:04.136Z,14.30
2023-03-22T07:06:32.750Z,15.57
2023-03-22T07:08:59.703Z,14.45
2023-03-22T07:11:26.570Z,14.70
2023-03-22T07:13:54.142Z,15.35
2023-03-22T07:16:21.588Z,15.25
2023-03-22T07:18:48.660Z,15.13
2023-03-22T07:21:15.476Z,14.73
2023-03-22T07:23:42.048Z,14.25
2023-03-22T07:26:08.700Z,15.02
2023-03-22T07:28:35.561Z,13.25
2023-03-22T07:31:02.987Z,14.23
2023-03-22T07:33:29.716Z,14.50
2023-03-22T07:35:56.689Z,12.65
2023-03-22T07:38:23.261Z,12.30
2023-03-22T07:40:54.744Z,12.43
2023-03-22T07:43:22.558Z,13.50
2023-03-22T07:45:50.559Z,13.65
2023-03-22T07:48:18.383Z,14.90
2023-03-22T07:50:45.662Z,14.70
2023-03-22T07:53:12.456Z,14.82
2023-03-22T07:55:39.687Z,14.05
2023-03-22T07:58:06.286Z,14.30
2023-03-22T08:00:32.960Z,14.32
2023-03-22T08:05:31.815Z,13.65
2023-03-22T08:07:58.314Z,14.60
2023-03-22T08:10:24.814Z,15.95
2023-03-22T08:12:51.409Z,14.43
2023-03-22T08:15:17.998Z,14.57
2023-03-22T08:17:44.698Z,13.20
2023-03-22T08:20:12.935Z,13.82
2023-03-22T08:22:39.604Z,14.48
2023-03-22T08:25:07.232Z,15.40
2023-03-22T08:27:33.756Z,14.77
2023-03-22T08:30:00.975Z,15.02
2023-03-22T08:32:27.546Z,14.23
2023-03-22T08:34:54.091Z,15.15
2023-03-22T08:37:20.752Z,15.18
2023-03-22T08:39:47.530Z,14.32
2023-03-22T08:42:14.032Z,12.80
2023-03-22T08:44:40.689Z,14.00
2023-03-22T08:47:07.357Z,13.32
2023-03-22T08:49:33.978Z,12.45
2023-03-22T08:52:00.573Z,12.20
2023-03-22T08:54:33.650Z,13.35
2023-03-22T08:57:00.804Z,11.90
2023-03-22T08:59:27.911Z,13.13
2023-03-22T09:01:54.460Z,11.73
2023-03-22T09:04:21.031Z,12.25
2023-03-22T09:06:47.665Z,12.60
2023-03-22T09:09:14.772Z,12.10
2023-03-22T09:11:42.857Z,10.80
2023-03-22T09:14:10.246Z,11.52
2023-03-22T09:16:37.096Z,12.63
2023-03-22T09:19:03.816Z,10.60
2023-03-22T09:21:34.658Z,10.07
2023-03-22T09:24:01.338Z,12.13
2023-03-22T09:26:28.062Z,10.40
2023-03-22T09:28:54.757Z,11.20
2023-03-22T09:31:21.373Z,11.40
2023-03-22T09:33:47.909Z,9.75
2023-03-22T09:36:14.452Z,10.38
2023-03-22T09:38:42.170Z,10.10
2023-03-22T09:41:21.129Z,10.27
2023-03-22T09:43:53.617Z,8.23
2023-03-22T09:46:30.602Z,8.60
2023-03-22T09:49:00.045Z,8.25
2023-03-22T09:51:43.799Z,8.60
2023-03-22T09:54:21.432Z,8.63
2023-03-22T09:56:58.817Z,8.55
2023-03-22T09:59:29.988Z,6.97
2023-03-22T10:02:18.939Z,7.05
2023-03-22T10:05:34.808Z,7.00
2023-03-22T10:08:18.558Z,7.57
2023-03-22T10:10:45.527Z,7.97
2023-03-22T10:13:34.199Z,8.30
2023-03-22T10:16:05.044Z,6.80
2023-03-22T10:18:52.266Z,7.40
2023-03-22T10:21:20.192Z,7.60
2023-03-22T10:23:55.969Z,7.43
2023-03-22T10:29:04.636Z,7.93
2023-03-22T10:31:32.342Z,8.70
2023-03-22T10:34:02.155Z,8.30
2023-03-22T10:36:31.557Z,9.57
2023-03-22T10:39:05.226Z,8.23
2023-03-22T10:41:33.695Z,7.38
2023-03-22T10:44:04.618Z,8.25
2023-03-22T10:46:38.637Z,8.77
2023-03-22T10:49:07.273Z,7.35
2023-03-22T10:51:48.727Z,7.78
2023-03-22T10:54:17.796Z,8.07
2023-03-22T10:56:45.118Z,6.55
2023-03-22T10:59:49.851Z,6.40
2023-03-22T11:02:32.172Z,7.63
2023-03-22T11:05:01.655Z,7.10
2023-03-22T11:07:33.318Z,7.55
2023-03-22T11:10:08.938Z,7.13
2023-03-22T11:12:40.019Z,7.22
2023-03-22T11:15:07.554Z,7.22
2023-03-22T11:17:37.686Z,7.80
2023-03-22T11:20:07.826Z,6.97
2023-03-22T11:22:42.696Z,7.70
2023-03-22T11:25:29.403Z,7.97
2023-03-22T11:28:04.823Z,8.50
2023-03-22T11:30:33.080Z,7.45
2023-03-22T11:33:15.522Z,8.70
2023-03-22T11:35:45.739Z,8.85
2023-03-22T11:38:47.250Z,8.68
2023-03-22T11:41:27.093Z,8.63
2023-03-22T11:43:56.882Z,9.32
2023-03-22T11:46:24.456Z,9.15
2023-03-22T11:48:53.104Z,8.98
2023-03-22T11:51:29.888Z,8.27
2023-03-22T11:54:14.118Z,8.40
2023-03-22T11:56:47.200Z,8.20
2023-03-22T11:59:16.897Z,7.97
2023-03-22T12:01:51.641Z,9.20
2023-03-22T12:04:24.446Z,8.43
2023-03-22T12:06:53.941Z,8.63
2023-03-22T12:09:36.547Z,8.77
2023-03-22T12:12:05.734Z,8.68
2023-03-22T12:15:09.532Z,9.00
2023-03-22T12:17:42.460Z,9.38
2023-03-22T12:20:48.520Z,8.93
2023-03-22T12:23:18.429Z,7.07
2023-03-22T12:25:51.684Z,8.35
2023-03-22T12:28:22.448Z,8.00
2023-03-22T12:30:53.295Z,7.40
2023-03-22T12:33:27.657Z,7.60
2023-03-22T12:35:58.655Z,7.15
2023-03-22T12:38:34.093Z,7.47
2023-03-22T12:41:04.928Z,7.65
2023-03-22T12:43:43.173Z,6.63
2023-03-22T12:46:18.385Z,6.40
2023-03-22T12:48:56.081Z,5.45
2023-03-22T12:51:22.805Z,5.68
2023-03-22T12:53:53.191Z,6.43
2023-03-22T12:56:23.299Z,7.03
2023-03-22T12:58:52.529Z,7.38
2023-03-22T13:01:33.528Z,6.28
2023-03-22T13:04:00.592Z,6.38
2023-03-22T13:06:34.851Z,5.93
2023-03-22T13:09:34.892Z,6.03
2023-03-22T13:12:16.940Z,5.57
2023-03-22T13:14:52.490Z,5.47
2023-03-22T13:17:25.516Z,5.45
2023-03-22T13:20:01.188Z,4.85
2023-03-22T13:22:49.180Z,5.22
2023-03-22T13:25:23.748Z,4.82
2023-03-22T13:27:54.636Z,4.80
2023-03-22T13:30:21.926Z,5.25
2023-03-22T13:32:54.580Z,5.32
2023-03-22T13:35:35.977Z,5.00
2023-03-22T13:38:08.839Z,5.57
2023-03-22T13:40:50.764Z,4.97
2023-03-22T13:43:17.182Z,5.40
2023-03-22T13:46:14.288Z,5.03
2023-03-22T13:48:52.721Z,5.57
2023-03-22T13:51:25.809Z,5.30
2023-03-22T13:54:13.461Z,6.03
2023-03-22T13:56:43.181Z,4.85
2023-03-22T13:59:33.852Z,4.90
2023-03-22T14:02:16.386Z,5.72
2023-03-22T14:04:48.880Z,6.10
2023-03-22T14:07:25.871Z,5.25
2023-03-22T14:09:57.415Z,5.20
2023-03-22T14:12:33.495Z,5.63
2023-03-22T14:15:04.688Z,6.07
2023-03-22T14:17:56.199Z,5.47
2023-03-22T14:20:27.070Z,5.32
2023-03-22T14:54:22.117Z,5.13
2023-03-22T14:56:49.874Z,5.15
2023-03-22T14:59:19.451Z,4.03
2023-03-22T15:01:54.153Z,5.10
2023-03-22T15:04:22.317Z,4.85
2023-03-22T15:06:57.550Z,4.38
2023-03-22T15:09:25.284Z,4.30
2023-03-22T15:11:59.133Z,4.60
2023-03-22T15:14:26.553Z,4.55
2023-03-22T15:16:53.840Z,4.45
2023-03-22T15:19:23.264Z,4.90
2023-03-22T15:22:04.492Z,3.88
2023-03-22T15:24:38.194Z,4.47
2023-03-22T15:27:10.245Z,3.90
2023-03-22T15:29:36.963Z,4.65
2023-03-22T15:32:04.500Z,4.38
2023-03-22T15:34:33.300Z,4.53
2023-03-22T15:37:01.560Z,4.25
2023-03-22T15:39:40.394Z,4.20
2023-03-22T15:42:25.521Z,3.63
2023-03-22T15:45:01.950Z,3.65
2023-03-22T15:47:43.025Z,4.22
2023-03-22T15:50:09.861Z,3.63
2023-03-22T15:52:38.255Z,3.88
2023-03-22T15:55:17.832Z,3.70
2023-03-22T15:57:55.457Z,3.80
2023-03-22T16:00:33.714Z,3.70
2023-03-22T16:03:06.497Z,3.85
2023-03-22T16:05:35.731Z,3.97
2023-03-22T16:08:04.874Z,4.05
2023-03-22T16:10:33.614Z,4.28
2023-03-22T16:13:01.157Z,3.88
2023-03-22T16:15:30.469Z,4.25
2023-03-22T16:17:58.332Z,4.03
2023-03-22T16:20:32.772Z,3.90
2023-03-22T16:23:01.849Z,4.43
2023-03-22T16:25:31.430Z,4.05
2023-03-22T16:27:58.055Z,3.92
2023-03-22T16:30:24.649Z,4.07
2023-03-22T16:32:51.320Z,4.10
2023-03-22T16:35:23.039Z,4.00
2023-03-22T16:37:50.449Z,4.05
2023-03-22T16:40:22.909Z,4.25
2023-03-22T16:42:49.884Z,4.25
2023-03-22T16:45:28.017Z,4.35
2023-03-22T16:47:55.651Z,5.15
2023-03-22T16:50:24.047Z,4.88
2023-03-22T16:52:53.662Z,5.30
2023-03-22T16:55:23.765Z,4.55
2023-03-22T16:57:51.096Z,5.53
2023-03-22T17:00:20.214Z,4.70
2023-03-22T17:02:49.352Z,3.97
2023-03-22T17:05:17.714Z,4.43
2023-03-22T17:07:44.300Z,4.63
2023-03-22T17:10:11.861Z,5.18
2023-03-22T17:12:39.310Z,5.25
2023-03-22T17:15:24.425Z,5.13
2023-03-22T17:17:51.030Z,5.88
2023-03-22T17:20:21.546Z,6.10
2023-03-22T17:22:49.152Z,6.97
2023-03-22T17:25:23.134Z,6.60
2023-03-22T17:27:50.455Z,6.68
2023-03-22T17:30:17.481Z,5.65
2023-03-22T17:32:57.850Z,5.45
2023-03-22T17:35:30.896Z,4.60
2023-03-22T17:37:59.158Z,4.40
2023-03-22T17:40:33.160Z,4.50
2023-03-22T17:43:06.922Z,3.72
2023-03-22T17:46:00.991Z,3.50
2023-03-22T17:48:22.727Z,4.13
2023-03-22T17:50:50.183Z,3.85
2023-03-22T17:53:30.195Z,4.03
2023-03-22T17:58:41.812Z,3.72
2023-03-22T18:01:11.672Z,4.32
2023-03-22T18:03:38.741Z,4.30
2023-03-22T18:06:05.641Z,3.80
2023-03-22T18:08:32.582Z,5.10
2023-03-22T18:10:59.225Z,4.55
2023-03-22T18:13:26.115Z,4.60
2023-03-22T18:15:52.779Z,4.18
2023-03-22T18:18:19.372Z,4.60
2023-03-22T18:20:57.339Z,4.32
2023-03-22T18:23:24.614Z,4.93
2023-03-22T18:25:58.129Z,4.68
2023-03-22T18:28:24.757Z,5.03
2023-03-22T18:30:53.857Z,4.95
2023-03-22T18:33:20.564Z,6.05
2023-03-22T18:35:56.369Z,6.05
2023-03-22T18:39:03.006Z,5.22
2023-03-22T18:41:34.564Z,7.30
2023-03-22T18:43:58.776Z,5.63
2023-03-22T18:46:25.685Z,5.40
2023-03-22T18:48:52.305Z,5.07
2023-03-22T18:51:21.736Z,5.60
2023-03-22T18:53:48.362Z,6.70
2023-03-22T18:58:42.043Z,6.53
2023-03-22T19:01:08.716Z,6.45
2023-03-22T19:03:35.919Z,6.85
2023-03-22T19:06:04.695Z,5.60
2023-03-22T19:08:31.341Z,6.15
2023-03-22T19:10:58.085Z,5.60
2023-03-22T19:13:24.726Z,6.43
2023-03-22T19:15:51.801Z,5.95
2023-03-22T19:18:18.784Z,6.13
2023-03-22T19:23:16.042Z,6.70
2023-03-22T19:25:42.997Z,6.97
2023-03-22T19:28:09.846Z,7.15
2023-03-22T19:30:36.512Z,6.90
2023-03-22T19:35:35.625Z,7.22
2023-03-22T19:38:02.392Z,6.80
2023-03-22T19:42:58.634Z,8.57
2023-03-22T19:45:25.864Z,7.70
2023-03-22T19:48:02.077Z,7.70
2023-03-22T19:50:30.689Z,7.90
2023-03-22T19:52:57.972Z,7.90
2023-03-22T19:55:25.130Z,9.00
2023-03-22T19:57:51.752Z,8.35
2023-03-22T20:00:44.448Z,8.77
2023-03-22T20:03:05.686Z,9.23
2023-03-22T20:05:35.000Z,8.73
2023-03-22T20:08:07.895Z,8.45
2023-03-22T20:10:36.622Z,9.43
2023-03-22T20:13:03.652Z,10.18
2023-03-22T20:15:30.436Z,9.98
2023-03-22T20:17:57.058Z,9.68
2023-03-22T20:20:25.272Z,9.63
2023-03-22T20:22:53.826Z,10.07
2023-03-22T20:25:21.802Z,9.50
2023-03-22T20:27:49.171Z,9.77
2023-03-22T20:30:17.701Z,9.55
2023-03-22T20:32:45.252Z,8.88
2023-03-22T20:35:12.617Z,10.27
2023-03-22T20:37:39.573Z,10.18
2023-03-22T20:40:07.170Z,9.02
2023-03-22T20:42:34.515Z,9.57
2023-03-22T20:45:02.114Z,9.52
2023-03-22T20:47:31.196Z,9.40
2023-03-22T20:49:58.534Z,9.77
2023-03-22T20:52:26.593Z,10.05
2023-03-22T20:54:53.171Z,10.43
2023-03-22T20:57:20.177Z,9.98
2023-03-22T20:59:47.073Z,10.32
2023-03-22T21:02:13.779Z,10.05
2023-03-22T21:04:40.670Z,8.88
2023-03-22T21:07:07.726Z,10.27
2023-03-22T21:09:34.346Z,9.18
2023-03-22T21:12:01.033Z,9.55
2023-03-22T21:14:27.922Z,11.25
2023-03-22T21:16:54.726Z,10.10
2023-03-22T21:19:21.766Z,11.70
2023-03-22T21:21:51.550Z,10.45
2023-03-22T21:24:18.303Z,10.77
2023-03-22T21:26:45.608Z,10.15
2023-03-22T21:29:12.534Z,10.55
2023-03-22T21:31:39.558Z,10.93
2023-03-22T21:34:09.283Z,9.93
2023-03-22T21:36:36.981Z,11.20
2023-03-22T21:39:08.339Z,11.43
2023-03-22T21:41:36.674Z,10.75
2023-03-22T21:44:06.789Z,10.75
2023-03-22T21:46:33.437Z,10.90
2023-03-22T21:49:01.962Z,10.63
2023-03-22T21:51:29.292Z,10.15
2023-03-22T21:53:56.874Z,10.63
2023-03-22T21:56:24.425Z,11.82
2023-03-22T21:58:52.063Z,11.13
2023-03-22T22:01:18.697Z,10.80
2023-03-22T22:03:46.568Z,11.02
2023-03-22T22:06:13.268Z,11.93
2023-03-22T22:08:40.465Z,12.35
2023-03-22T22:11:08.729Z,12.18
2023-03-22T22:13:36.720Z,11.60
2023-03-22T22:16:06.507Z,11.88
2023-03-22T22:18:35.661Z,12.52
2023-03-22T22:21:07.236Z,13.98
2023-03-22T22:23:37.189Z,13.02
2023-03-22T22:28:46.769Z,16.05
2023-03-22T22:31:18.712Z,14.93
2023-03-22T22:33:45.678Z,15.80
2023-03-22T22:36:12.356Z,14.60
2023-03-22T22:38:40.606Z,15.43
2023-03-22T22:41:09.900Z,13.43
2023-03-22T22:43:36.954Z,13.15
2023-03-22T22:46:04.140Z,14.05
2023-03-22T22:48:31.398Z,13.77
2023-03-22T22:51:07.450Z,13.23
2023-03-22T22:53:35.439Z,13.18
2023-03-22T22:56:04.284Z,13.20
2023-03-22T22:58:31.324Z,13.65
2023-03-22T23:00:57.951Z,13.68
2023-03-22T23:03:28.889Z,14.43
2023-03-22T23:05:56.796Z,16.05
2023-03-22T23:08:24.472Z,13.48
2023-03-22T23:10:52.598Z,12.45
2023-03-22T23:13:23.417Z,14.25
2023-03-22T23:15:52.794Z,13.52
2023-03-22T23:18:26.289Z,15.20
2023-03-22T23:20:53.494Z,14.30
2023-03-22T23:23:21.973Z,12.35
2023-03-22T23:25:51.773Z,12.98
2023-03-22T23:28:22.768Z,14.93
2023-03-22T23:30:49.848Z,13.70
2023-03-22T23:33:16.847Z,13.43
2023-03-22T23:35:44.080Z,12.50
2023-03-22T23:38:11.105Z,13.52
2023-03-22T23:40:37.804Z,13.18
2023-03-22T23:43:04.963Z,12.77
2023-03-22T23:45:31.691Z,13.43
2023-03-22T23:47:58.587Z,13.15
2023-03-22T23:50:25.217Z,12.90
2023-03-22T23:52:51.945Z,14.32
2023-03-22T23:55:18.602Z,14.65
2023-03-22T23:57:47.544Z,14.38
